Strona główna
METAR-TAF:

METAR-TAF

Lotnisko :

Reykjavík, Islandia

Port lotniczy Reykjavík

Szerokość geograficzna: 64-08N, Długość geograficzna: 021-54W, wysokość: 54 m

Aktualna obserwacja pogody

Raport powstał 18 minut temu, godzina 01:00 UTC
Wiatr 5 kt od wschód
Temperatura 7°C
Wilgotność 76%
Ciśnienie 1005 hPa
Widzialność 10 km lub więcej
Mało chmury na wysokości 4500 ft

METAR: BIRK 200100Z 09005KT 9999 FEW045 07/03 Q1005

czas: 01:18 (01:18 UTC)

Prognoza

Raport powstał 3 godziny i 10 minut temu, godzina 22:08 UTC
Prognoza ważna od 20 godzina 00 UTC do 20 godzina 24 UTC
Wiatr 7 kt od wschód
Widzialność 10 km lub więcej
Rozproszone chmury na wysokości 2000 ft
Przerywane chmury na wysokości 3000 ft
Przejściowo
od 20 godzina 12 UTC do 20 godzina 21 UTC
Przerywane chmury na wysokości 2000 ft, Cumulonimbus.
przelotny opad deszczu

TAF: BIRK 192208Z 2000/2024 10007KT 9999 SCT020 BKN030 TX09/2015Z TN04/2003Z TEMPO 2012/2021 SHRA BKN020CB

Obserwacja i prognoza pogody dla ponad 4000 lotnisk (raport METAR i TAF).

Dostępne stacje oznaczono żółtymi i czerwonymi punktami na mapie.

Najedź kursorem aby zobaczyć nazwę stacji.

Kliknij aby zobaczyć obserwacje i prognozy pogody.

Aby zmienić mapę: kliknij na zielony przycisk z czarnym krzyżykiem, aby powiększyć; na zielony przycisk z myślnikiem, aby pomniejszyć; na zielone strzałki, aby przejść do map sąsiednich.


METAR-TAF: